< < Back
Terminal Aerodrome Forecast


Current Version              Previous Versions:   1  2  3  4  5  6  7  8  9  

Terminal Aerodrome Forecast

242
FTUS42 KMLB 191100
TAFMCO
TAF
KMCO 191135Z 1912/2012 20006KT P6SM VCSH SCT025 SCT080
     FM191500 26011KT P6SM VCSH SCT025 BKN035
     FM200000 29010KT P6SM SCT012 BKN020=



Latest METAR

097
SAUS70 KWBC 191200 RRI
MTRMCO
METAR KMCO 191153Z 21007KT 10SM FEW013 BKN018 BKN047 21/19 A2993 RMK AO2
SLP132 70005 T02110194 10211 20189 51014


USA.gov is the U.S. government's official web portal to all federal, state and local government web resources and services.